Data for 03/12/2017

Time Sea-Level Adjusted Pressure Absolute Pressure Temperature Relative Humidity Dew Point   
(mb) (inHg) (mb) (inHg) (C) (F) (%) (C) (F)
00:05 1015 29.97 844 24.92 8.1 46.6 38 -5.2 22.7
00:10 1015 29.97 844 24.92 8.1 46.6 39 -5.2 22.7
00:15 1015 29.97 844 24.92 8.1 46.5 39 -5.1 22.8
00:20 1015 29.97 845 24.95 8.1 46.6 47 -2.4 27.7
00:25 1016 30 845 24.95 6.2 43.2 69 1 33.8
00:30 1016 30 845 24.95 3.9 39.1 80 0.8 33.5
00:35 1016 30 846 24.98 3.1 37.6 82 0.3 32.5
00:40 1017 30.03 846 24.98 3 37.4 81 0.1 32.1
00:45 1017 30.03 846 24.98 3 37.5 80 -0.2 31.7
00:50 1017 30.03 846 24.98 2.9 37.3 81 -0 31.9
00:55 1017 30.03 846 24.98 2.7 36.8 83 0 32
01:00 1017 30.03 846 24.98 2.2 35.9 84 -0.2 31.7
01:05 1017 30.03 847 25.01 1.7 35.1 86 -0.3 31.5
01:10 1017 30.03 846 24.98 1.2 34.2 88 -0.6 30.8
01:15 1017 30.03 846 24.98 1.6 34.8 78 -1.9 28.6
01:20 1017 30.03 846 24.98 2.3 36.2 74 -1.8 28.8
01:25 1017 30.03 846 24.98 2.5 36.5 75 -1.5 29.3
01:30 1017 30.03 846 24.98 2.5 36.6 75 -1.4 29.5
01:35 1017 30.03 846 24.98 2.5 36.4 78 -1.1 30.1
01:40 1017 30.03 847 25.01 2.2 36 80 -0.8 30.5
01:45 1017 30.03 846 24.98 2.1 35.8 81 -0.9 30.4
01:50 1017 30.03 846 24.98 2.1 35.8 80 -1 30.3
01:55 1017 30.03 847 25.01 2 35.5 81 -0.9 30.4
03:00 1017 30.03 847 25.01 2 35.7 78 -1.3 29.6
03:05 1018 30.06 847 25.01 2.4 36.4 76 -1.4 29.4
03:10 1017 30.03 847 25.01 2.7 36.8 75 -1.4 29.5
03:15 1017 30.03 847 25.01 2.8 37 73 -1.6 29.1
03:20 1017 30.03 847 25.01 3 37.4 72 -1.7 29
03:25 1017 30.03 847 25.01 3 37.4 71 -1.7 28.9
03:30 1017 30.03 847 25.01 3.1 37.6 68 -2.2 28
03:35 1018 30.06 847 25.01 3.2 37.8 67 -2.4 27.8
03:40 1018 30.06 847 25.01 3.3 38 65 -2.6 27.4
03:45 1018 30.06 847 25.01 3.3 38 65 -2.6 27.4
03:50 1018 30.06 847 25.01 3.3 38 64 -2.8 26.9
03:55 1018 30.06 847 25.01 3.4 38.1 64 -2.8 27
04:00 1018 30.06 847 25.01 3.4 38.1 64 -2.9 26.8
04:05 1018 30.06 847 25.01 3.3 37.9 66 -2.5 27.4
04:10 1018 30.06 847 25.01 3.1 37.6 66 -2.7 27.2
04:15 1018 30.06 847 25.01 3 37.3 66 -2.9 26.9
04:20 1018 30.06 847 25.01 2.9 37.1 68 -2.5 27.5
04:25 1018 30.06 847 25.01 2.7 36.8 68 -2.6 27.3
04:30 1018 30.06 847 25.01 2.6 36.7 70 -2.4 27.7
04:35 1018 30.06 847 25.01 2.5 36.6 68 -2.8 27
04:40 1018 30.06 847 25.01 2.5 36.4 68 -2.8 26.9
04:45 1018 30.06 847 25.01 2.6 36.7 67 -2.8 26.9
04:50 1018 30.06 847 25.01 2.6 36.7 69 -2.5 27.5
04:55 1018 30.06 847 25.01 2.3 36.1 71 -2.4 27.7
05:00 1018 30.06 847 25.01 2.1 35.9 70 -2.7 27.1
05:05 1018 30.06 847 25.01 2.2 35.9 68 -3.2 26.3
05:10 1018 30.06 847 25.01 2.2 35.9 69 -2.9 26.8
05:15 1018 30.06 847 25.01 2 35.5 71 -2.8 27
05:20 1018 30.06 847 25.01 1.9 35.4 71 -2.8 27
05:25 1018 30.06 847 25.01 1.9 35.3 70 -3.1 26.5
05:30 1018 30.06 847 25.01 1.8 35.2 67 -3.7 25.3
05:35 1018 30.06 847 25.01 1.4 34.6 66 -4.2 24.4
05:40 1018 30.06 847 25.01 1.5 34.6 62 -5.1 22.8
05:45 1018 30.06 847 25.01 1.9 35.4 56 -5.9 21.3
05:50 1018 30.06 847 25.01 2.1 35.9 56 -5.7 21.8
05:55 1018 30.06 847 25.01 2.5 36.5 53 -6.2 20.8
06:00 1018 30.06 847 25.01 2.5 36.6 54 -5.8 21.6
06:05 1018 30.06 847 25.01 2.4 36.3 55 -5.8 21.6
06:10 1018 30.06 847 25.01 2.3 36.2 55 -5.8 21.6
06:15 1018 30.06 848 25.04 2.2 35.9 56 -5.8 21.6
06:20 1019 30.09 848 25.04 2.1 35.8 55 -5.9 21.3
06:25 1018 30.06 848 25.04 2.1 35.8 56 -5.8 21.6
06:30 1018 30.06 848 25.04 2 35.6 55 -6 21.2
06:35 1018 30.06 848 25.04 2.1 35.7 55 -6.2 20.9
06:40 1019 30.09 848 25.04 2.2 35.9 54 -6.3 20.6
06:45 1019 30.09 848 25.04 2.3 36.1 52 -6.5 20.2
06:50 1019 30.09 848 25.04 2.5 36.5 52 -6.4 20.4
06:55 1019 30.09 848 25.04 2.6 36.7 51 -6.5 20.2
07:00 1019 30.09 848 25.04 2.6 36.7 52 -6.4 20.6
07:05 1019 30.09 848 25.04 2.6 36.7 50 -6.7 19.9
07:10 1019 30.09 848 25.04 2.8 37.1 49 -6.8 19.7
07:15 1019 30.09 848 25.04 2.9 37.2 50 -6.6 20.1
07:20 1019 30.09 848 25.04 2.9 37.1 48 -7 19.3
07:25 1019 30.09 848 25.04 3 37.4 48 -7 19.5
07:30 1019 30.09 848 25.04 3 37.5 48 -6.8 19.8
07:35 1019 30.09 848 25.04 2.9 37.2 50 -6.5 20.3
07:40 1019 30.09 848 25.04 2.8 37.1 50 -6.6 20.1
07:45 1019 30.09 848 25.04 2.7 36.9 50 -6.5 20.2
07:50 1019 30.09 848 25.04 2.8 37 49 -6.8 19.7
07:55 1019 30.09 848 25.04 2.9 37.3 48 -6.9 19.6
08:00 1019 30.09 849 25.07 3 37.4 48 -6.9 19.6
08:05 1019 30.09 849 25.07 3.1 37.5 49 -6.6 20.1
08:10 1019 30.09 849 25.07 3.2 37.7 50 -6.3 20.7
08:15 1020 30.12 849 25.07 3.2 37.8 48 -6.8 19.8
08:20 1020 30.12 849 25.07 3.3 38 48 -6.6 20.1
08:25 1020 30.12 849 25.07 3.2 37.8 49 -6.5 20.4
08:30 1020 30.12 849 25.07 3.4 38.2 48 -6.6 20.1
08:35 1020 30.12 849 25.07 3.7 38.7 48 -6.4 20.5
08:40 1020 30.12 849 25.07 3.6 38.5 49 -6.2 20.8
08:45 1020 30.12 849 25.07 3.5 38.4 49 -6.2 20.8
08:50 1020 30.12 849 25.07 3.4 38.2 49 -6.3 20.7
08:55 1020 30.12 849 25.07 3.4 38.1 51 -5.9 21.4
09:00 1020 30.12 849 25.07 3.3 38 50 -6.1 21.1
09:05 1020 30.12 849 25.07 3.3 37.9 51 -5.9 21.4
09:10 1020 30.12 850 25.1 3.2 37.8 51 -6 21.1
09:15 1020 30.12 850 25.1 3.3 37.9 51 -5.8 21.5
09:20 1020 30.12 850 25.1 3.3 37.9 52 -5.6 22
09:25 1020 30.12 850 25.1 3.3 37.9 52 -5.7 21.8
09:30 1020 30.12 850 25.1 3.3 37.9 53 -5.5 22.2
09:35 1021 30.15 850 25.1 3.4 38.2 53 -5.2 22.6
09:40 1021 30.15 850 25.1 3.6 38.4 53 -5.2 22.6
09:45 1021 30.15 850 25.1 3.6 38.5 52 -5.3 22.5
09:50 1021 30.15 850 25.1 3.8 38.8 51 -5.4 22.4
09:55 1021 30.15 850 25.1 3.9 39 51 -5.3 22.5
10:00 1021 30.15 850 25.1 4.4 39.9 51 -4.8 23.4
10:05 1021 30.15 850 25.1 4.7 40.5 49 -5.2 22.7
10:10 1021 30.15 850 25.1 4.6 40.2 52 -4.3 24.2
10:15 1021 30.15 850 25.1 4.5 40 53 -4.3 24.3
10:20 1021 30.15 850 25.1 4.8 40.7 50 -4.7 23.5
10:25 1021 30.15 850 25.1 5 41 47 -5.3 22.4
10:30 1021 30.15 850 25.1 5.2 41.3 47 -5.2 22.6
10:35 1021 30.15 850 25.1 5.7 42.3 40 -6.7 20
10:40 1021 30.15 850 25.1 6.1 43 42 -5.8 21.6
10:45 1021 30.15 850 25.1 6.1 42.9 43 -5.7 21.7
10:50 1021 30.15 850 25.1 6 42.8 42 -5.8 21.5
10:55 1021 30.15 850 25.1 5.9 42.7 41 -6.3 20.7
11:00 1021 30.15 850 25.1 6.1 42.9 36 -8 17.5
11:05 1021 30.15 850 25.1 6 42.8 34 -8.7 16.4
11:10 1021 30.15 850 25.1 6 42.7 34 -8.6 16.5
11:15 1021 30.15 850 25.1 5.9 42.6 34 -8.8 16.2
11:20 1021 30.15 850 25.1 5.9 42.7 37 -7.6 18.3
11:25 1021 30.15 851 25.13 6 42.8 36 -8.1 17.5
11:30 1021 30.15 851 25.13 6 42.9 35 -8.4 16.8
11:35 1021 30.15 851 25.13 6.2 43.1 35 -8.2 17.3
11:40 1021 30.15 851 25.13 6.3 43.4 35 -8.1 17.4
11:45 1021 30.15 851 25.13 6.3 43.3 34 -8.4 16.8
11:50 1022 30.18 851 25.13 6.2 43.1 38 -7.2 19
11:55 1022 30.18 851 25.13 6.2 43.2 35 -8 17.5
12:00 1022 30.18 851 25.13 6.4 43.5 33 -8.8 16.1
12:05 1022 30.18 851 25.13 6.6 43.8 33 -8.7 16.3
12:10 1022 30.18 851 25.13 6.8 44.2 31 -9.2 15.5
12:15 1022 30.18 851 25.13 7.3 45.1 31 -8.8 16.2
12:20 1022 30.18 851 25.13 7.5 45.6 31 -8.4 16.9
12:25 1022 30.18 851 25.13 7.7 45.8 31 -8.2 17.2
12:30 1022 30.18 851 25.13 7.4 45.3 32 -8.1 17.4
12:35 1022 30.18 851 25.13 7.5 45.6 31 -8.5 16.8
12:40 1022 30.18 851 25.13 7.8 46 31 -8.4 16.9
12:45 1022 30.18 851 25.13 7.9 46.2 30 -8.6 16.6
12:50 1022 30.18 851 25.13 8.1 46.6 30 -8.3 17
12:55 1022 30.18 851 25.13 8 46.5 31 -8.2 17.3
13:00 1022 30.18 851 25.13 7.8 46 31 -8.2 17.3
13:05 1022 30.18 851 25.13 8.1 46.6 29 -8.8 16.1
13:10 1022 30.18 851 25.13 8 46.5 30 -8.7 16.3
13:15 1022 30.18 851 25.13 7.9 46.2 30 -8.6 16.6
13:20 1022 30.18 852 25.16 8 46.3 29 -8.9 16
13:25 1022 30.18 852 25.16 7.7 45.8 29 -9.2 15.4
13:30 1022 30.18 851 25.13 7.7 45.9 30 -9 15.8
13:35 1022 30.18 851 25.13 7.8 46 30 -8.7 16.4
13:40 1022 30.18 851 25.13 7.8 46 30 -8.6 16.6
13:45 1022 30.18 851 25.13 7.8 46.1 30 -8.9 16
13:50 1022 30.18 851 25.13 7.8 46.1 30 -8.8 16.2
13:55 1022 30.18 851 25.13 7.8 46.1 30 -8.9 16
14:00 1022 30.18 851 25.13 7.7 45.8 30 -8.7 16.4
14:05 1022 30.18 851 25.13 7.9 46.2 30 -8.7 16.3
14:10 1022 30.18 851 25.13 8 46.4 29 -8.8 16.1
14:15 1022 30.18 851 25.13 8 46.5 29 -9 15.9
14:20 1022 30.18 851 25.13 7.9 46.2 30 -8.9 16.1
14:25 1022 30.18 851 25.13 8 46.4 29 -9 15.8
14:30 1022 30.18 851 25.13 7.9 46.3 27 -9.7 14.5
14:35 1022 30.18 851 25.13 7.9 46.2 29 -9.2 15.4
14:40 1022 30.18 851 25.13 8.3 46.9 28 -9.2 15.4
14:45 1022 30.18 851 25.13 8.6 47.5 27 -9.2 15.4
14:50 1022 30.18 851 25.13 8.9 48 26 -9.5 15
14:55 1022 30.18 851 25.13 9 48.2 27 -9.1 15.7
15:00 1022 30.18 851 25.13 9 48.2 25 -9.8 14.3
15:05 1022 30.18 851 25.13 8.8 47.9 26 -9.7 14.6
15:10 1022 30.18 851 25.13 9.2 48.6 25 -9.6 14.7
15:15 1022 30.18 851 25.13 8.9 47.9 27 -9.3 15.2
15:20 1022 30.18 851 25.13 9 48.1 26 -9.4 15.1
15:25 1022 30.18 851 25.13 8.8 47.9 26 -9.5 14.9
15:30 1022 30.18 851 25.13 8.6 47.5 27 -9.5 15
15:35 1022 30.18 851 25.13 8.6 47.5 27 -9.6 14.7
15:40 1022 30.18 851 25.13 8.4 47.2 26 -9.8 14.3
15:45 1022 30.18 851 25.13 8.8 47.8 26 -9.9 14.2
15:50 1022 30.18 851 25.13 9 48.2 26 -9.5 15
15:55 1022 30.18 852 25.16 9.2 48.5 26 -9.2 15.4
16:00 1022 30.18 852 25.16 8.8 47.9 28 -8.6 16.6
16:05 1022 30.18 852 25.16 9.1 48.3 27 -8.9 15.9
16:10 1022 30.18 852 25.16 9.3 48.8 27 -8.6 16.6
16:15 1022 30.18 852 25.16 8.7 47.7 28 -9 15.8
16:20 1022 30.18 852 25.16 8.9 47.9 26 -9.8 14.3
16:25 1022 30.18 852 25.16 9.5 49 27 -8.7 16.4
16:30 1022 30.18 852 25.16 9.4 48.9 27 -8.9 16
16:35 1022 30.18 852 25.16 9.3 48.8 24 -10.1 13.8
16:40 1022 30.18 852 25.16 9.6 49.2 24 -10.2 13.7
16:45 1022 30.18 851 25.13 9.3 48.8 24 -10.4 13.3
16:50 1022 30.18 852 25.16 9.2 48.6 24 -10.4 13.2
16:55 1022 30.18 852 25.16 9.2 48.5 24 -10.6 13
17:00 1022 30.18 852 25.16 9.3 48.8 23 -10.5 13
17:05 1022 30.18 852 25.16 9.2 48.6 23 -10.8 12.5
17:10 1022 30.18 852 25.16 9.3 48.7 23 -10.8 12.6
17:15 1022 30.18 852 25.16 9.3 48.7 24 -10.3 13.4
17:20 1022 30.18 852 25.16 9.2 48.5 23 -11 12.2
17:25 1022 30.18 852 25.16 9.2 48.5 24 -10.5 13.1
17:30 1022 30.18 852 25.16 9.3 48.7 24 -10.2 13.6
17:35 1022 30.18 852 25.16 9.1 48.4 24 -10.5 13.1
17:40 1022 30.18 852 25.16 9 48.3 24 -10.4 13.3
17:45 1022 30.18 852 25.16 8.9 48 25 -10.3 13.4
17:50 1022 30.18 852 25.16 8.8 47.9 25 -10.4 13.3
17:55 1023 30.21 852 25.16 8.6 47.5 29 -8.6 16.4
18:00 1023 30.21 852 25.16 8.3 46.9 33 -7.1 19.3
18:05 1023 30.21 852 25.16 8.1 46.5 33 -7.4 18.7
18:10 1023 30.21 852 25.16 8.1 46.6 33 -7.3 18.9
18:15 1023 30.21 852 25.16 8.2 46.7 32 -7.5 18.5
18:20 1023 30.21 852 25.16 7.9 46.2 33 -7.4 18.6
18:25 1023 30.21 852 25.16 7.5 45.5 34 -7.4 18.6
18:30 1023 30.21 852 25.16 7.6 45.6 34 -7.4 18.6
18:35 1023 30.21 852 25.16 7.6 45.7 34 -7.3 18.8
18:40 1023 30.21 852 25.16 7.7 45.8 35 -7 19.4
18:45 1023 30.21 852 25.16 7.2 45 36 -6.9 19.6
18:50 1023 30.21 852 25.16 7.1 44.7 36 -7 19.3
18:55 1023 30.21 852 25.16 6.8 44.2 36 -7.3 18.8
19:00 1023 30.21 852 25.16 6.7 44.1 36 -7.3 18.8
19:05 1023 30.21 852 25.16 6.7 44.1 37 -7.1 19.2
19:10 1023 30.21 852 25.16 6.7 44.1 37 -7.1 19.2
19:15 1023 30.21 852 25.16 6.5 43.8 37 -7.2 19.1
19:20 1023 30.21 852 25.16 6.4 43.5 37 -7.1 19.1
19:25 1023 30.21 852 25.16 6.2 43.2 38 -7.1 19.2
19:30 1023 30.21 852 25.16 6.1 43 38 -7 19.3
19:35 1023 30.21 852 25.16 5.9 42.7 39 -6.9 19.5
19:40 1023 30.21 852 25.16 5.8 42.4 40 -6.8 19.7
19:45 1023 30.21 852 25.16 5.7 42.2 40 -6.8 19.7
19:50 1023 30.21 852 25.16 5.5 41.9 41 -6.7 19.9
19:55 1023 30.21 852 25.16 5.4 41.8 41 -6.9 19.6
20:00 1023 30.21 852 25.16 5.4 41.7 41 -6.7 19.9
20:05 1023 30.21 852 25.16 5.2 41.3 42 -6.6 20.2
20:10 1023 30.21 852 25.16 5 40.9 43 -6.7 20
20:15 1023 30.21 852 25.16 4.9 40.8 43 -6.7 20
20:20 1023 30.21 852 25.16 5 40.9 43 -6.5 20.2
20:25 1023 30.21 852 25.16 4.8 40.7 43 -6.6 20.1
20:30 1023 30.21 852 25.16 4.7 40.4 44 -6.6 20.1
20:35 1023 30.21 852 25.16 4.6 40.3 43 -6.9 19.5
20:40 1023 30.21 852 25.16 4.6 40.3 46 -6 21.2
20:45 1023 30.21 852 25.16 3.7 38.7 49 -6 21.2
20:50 1023 30.21 852 25.16 3.7 38.6 47 -6.5 20.3
20:55 1023 30.21 852 25.16 3.9 38.9 47 -6.5 20.4
21:00 1023 30.21 852 25.16 3.9 39 47 -6.4 20.5
21:05 1023 30.21 852 25.16 3.7 38.7 48 -6.2 20.8
21:10 1023 30.21 852 25.16 3.3 38 50 -6.2 20.9
21:15 1023 30.21 853 25.19 2.8 37 53 -5.8 21.5
21:20 1023 30.21 853 25.19 2.1 35.9 54 -6.2 20.9
21:25 1023 30.21 853 25.19 2.3 36.1 51 -6.8 19.8
21:30 1024 30.24 853 25.19 2.8 37.1 50 -6.7 19.9
21:35 1024 30.24 853 25.19 2.8 37.1 50 -6.7 20
21:40 1024 30.24 853 25.19 2.8 37 52 -6.1 21
21:45 1024 30.24 853 25.19 2.3 36.1 53 -6.4 20.5
21:50 1024 30.24 853 25.19 2.3 36.2 53 -6.4 20.5
21:55 1024 30.24 853 25.19 2.3 36.1 51 -6.7 19.9
22:00 1024 30.24 853 25.19 2.1 35.7 52 -6.8 19.7
22:05 1024 30.24 853 25.19 2 35.6 51 -7.1 19.2
22:10 1024 30.24 853 25.19 2.1 35.7 51 -7.1 19.2
22:15 1024 30.24 853 25.19 2 35.6 51 -7 19.3
22:20 1024 30.24 853 25.19 1.9 35.4 52 -7 19.5
22:25 1024 30.24 853 25.19 1.8 35.2 53 -6.9 19.6
22:30 1024 30.24 853 25.19 1.5 34.7 53 -7 19.4
22:35 1024 30.24 853 25.19 1.4 34.5 56 -6.5 20.3
22:40 1024 30.24 853 25.19 1.4 34.4 56 -6.5 20.2
22:45 1024 30.24 853 25.19 1.4 34.5 55 -6.6 20.2
22:50 1024 30.24 853 25.19 1.5 34.8 55 -6.7 20
22:55 1024 30.24 853 25.19 1.6 34.9 54 -6.8 19.8
23:00 1023 30.21 853 25.19 1.6 35 54 -6.8 19.8
23:05 1023 30.21 853 25.19 1.6 34.9 53 -6.8 19.7
23:10 1023 30.21 853 25.19 1.8 35.2 53 -6.8 19.7
23:15 1023 30.21 853 25.19 1.9 35.4 53 -6.8 19.7
23:20 1023 30.21 853 25.19 1.8 35.2 54 -6.7 20
23:25 1023 30.21 852 25.16 1.5 34.6 56 -6.4 20.4
23:30 1023 30.21 852 25.16 1.1 34 56 -6.7 20
23:35 1023 30.21 852 25.16 1.2 34.1 56 -6.6 20.1
23:40 1023 30.21 852 25.16 1.1 34 57 -6.5 20.3
23:45 1023 30.21 852 25.16 1 33.8 58 -6.4 20.4
23:50 1023 30.21 852 25.16 1 33.7 58 -6.5 20.4
23:55 1023 30.21 852 25.16 1 33.8 58 -6.4 20.5
24:00 1023 30.21 852 25.16 1 33.8 58 -6.4 20.5